createdAt,value
2019-05-03T00:02:26.978Z,3.53
2019-05-03T00:05:25.410Z,2.13
2019-05-03T00:08:04.907Z,2.03
2019-05-03T00:10:38.670Z,1.90
2019-05-03T00:13:12.552Z,2.00
2019-05-03T00:16:05.650Z,2.07
2019-05-03T00:18:37.305Z,2.20
2019-05-03T00:21:08.812Z,1.83
2019-05-03T00:23:41.804Z,1.77
2019-05-03T00:26:13.621Z,1.87
2019-05-03T00:28:45.087Z,2.00
2019-05-03T00:31:16.574Z,1.57
2019-05-03T00:33:51.685Z,1.23
2019-05-03T00:36:32.933Z,1.30
2019-05-03T00:39:26.953Z,1.33
2019-05-03T00:41:59.021Z,1.50
2019-05-03T00:44:31.689Z,1.43
2019-05-03T00:47:03.631Z,1.20
2019-05-03T00:49:35.190Z,1.90
2019-05-03T00:52:06.882Z,1.73
2019-05-03T00:54:38.340Z,1.70
2019-05-03T00:57:11.945Z,1.43
2019-05-03T00:59:43.012Z,1.60
2019-05-03T01:02:14.508Z,1.60
2019-05-03T01:04:46.040Z,1.30
2019-05-03T01:07:17.507Z,1.90
2019-05-03T01:09:48.967Z,1.50
2019-05-03T01:12:21.990Z,2.30
2019-05-03T01:14:55.374Z,1.80
2019-05-03T01:17:26.974Z,1.70
2019-05-03T01:19:58.455Z,2.20
2019-05-03T01:22:31.986Z,1.73
2019-05-03T01:25:03.466Z,2.10
2019-05-03T01:27:35.125Z,1.70
2019-05-03T01:30:07.734Z,2.03
2019-05-03T01:32:41.722Z,2.30
2019-05-03T01:35:13.331Z,2.27
2019-05-03T01:37:45.326Z,2.20
2019-05-03T01:40:17.548Z,2.03
2019-05-03T01:42:51.829Z,2.10
2019-05-03T01:45:24.368Z,1.90
2019-05-03T01:48:05.812Z,2.07
2019-05-03T01:50:44.130Z,1.80
2019-05-03T01:53:18.072Z,2.17
2019-05-03T01:55:52.780Z,2.10
2019-05-03T01:58:25.170Z,1.70
2019-05-03T02:01:16.622Z,1.80
2019-05-03T02:03:56.195Z,2.20
2019-05-03T02:06:28.064Z,2.30
2019-05-03T02:09:01.511Z,1.93
2019-05-03T02:11:35.514Z,2.07
2019-05-03T02:14:07.882Z,2.40
2019-05-03T02:16:47.118Z,2.20
2019-05-03T02:19:19.210Z,2.00
2019-05-03T02:21:52.332Z,2.10
2019-05-03T02:24:24.550Z,2.00
2019-05-03T02:26:56.610Z,2.00
2019-05-03T02:29:29.131Z,1.90
2019-05-03T02:32:03.319Z,2.00
2019-05-03T02:34:36.087Z,2.80
2019-05-03T02:37:07.907Z,2.70
2019-05-03T02:39:42.503Z,2.17
2019-05-03T02:42:15.907Z,1.80
2019-05-03T02:44:46.995Z,1.80
2019-05-03T02:47:38.769Z,2.20
2019-05-03T02:50:16.477Z,1.97
2019-05-03T02:52:47.630Z,1.93
2019-05-03T02:55:19.921Z,1.90
2019-05-03T02:57:51.822Z,1.90
2019-05-03T03:00:47.474Z,1.70
2019-05-03T03:03:19.085Z,1.73
2019-05-03T03:05:52.091Z,2.00
2019-05-03T03:08:25.903Z,1.93
2019-05-03T03:11:02.567Z,2.30
2019-05-03T03:13:36.927Z,2.63
2019-05-03T03:16:11.411Z,1.93
2019-05-03T03:18:45.536Z,2.27
2019-05-03T03:21:18.581Z,1.93
2019-05-03T03:24:07.286Z,2.53
2019-05-03T03:26:43.201Z,1.93
2019-05-03T03:29:16.300Z,2.07
2019-05-03T03:32:29.504Z,1.73
2019-05-03T03:35:14.831Z,2.00
2019-05-03T03:37:47.254Z,1.63
2019-05-03T03:40:20.163Z,1.70
2019-05-03T03:42:52.527Z,1.47
2019-05-03T03:45:25.422Z,1.63
2019-05-03T03:48:00.128Z,1.53
2019-05-03T03:50:35.876Z,1.97
2019-05-03T03:53:11.835Z,1.50
2019-05-03T03:55:46.978Z,1.40
2019-05-03T03:58:22.851Z,1.70
2019-05-03T04:00:52.357Z,1.63
2019-05-03T04:03:25.950Z,1.80
2019-05-03T04:05:57.046Z,2.00
2019-05-03T04:08:28.595Z,1.70
2019-05-03T04:11:00.145Z,2.10
2019-05-03T04:13:32.706Z,1.50
2019-05-03T04:16:21.096Z,1.60
2019-05-03T04:18:57.692Z,2.00
2019-05-03T04:21:29.258Z,1.93
2019-05-03T04:24:00.836Z,1.57
2019-05-03T04:26:35.624Z,1.50
2019-05-03T04:29:06.107Z,1.67
2019-05-03T04:31:37.650Z,2.47
2019-05-03T04:34:10.420Z,1.57
2019-05-03T04:36:41.932Z,1.57
2019-05-03T04:39:17.170Z,2.00
2019-05-03T04:41:46.543Z,1.70
2019-05-03T04:44:18.387Z,1.70
2019-05-03T04:46:50.564Z,2.30
2019-05-03T04:49:22.499Z,1.97
2019-05-03T04:51:56.018Z,1.60
2019-05-03T04:54:51.226Z,1.80
2019-05-03T04:57:38.088Z,1.53
2019-05-03T04:59:56.794Z,1.53
2019-05-03T05:02:29.021Z,1.50
2019-05-03T05:05:00.911Z,1.83
2019-05-03T05:07:35.082Z,1.40
2019-05-03T05:10:07.239Z,1.30
2019-05-03T05:12:39.440Z,1.83
2019-05-03T05:15:11.763Z,1.97
2019-05-03T05:17:56.124Z,2.00
2019-05-03T05:20:35.104Z,2.03
2019-05-03T05:23:07.450Z,1.53
2019-05-03T05:25:44.672Z,1.50
2019-05-03T05:28:24.976Z,2.00
2019-05-03T05:30:57.733Z,1.40
2019-05-03T05:33:29.969Z,1.70
2019-05-03T05:36:01.915Z,1.60
2019-05-03T05:38:34.631Z,1.63
2019-05-03T05:41:07.535Z,1.60
2019-05-03T05:43:39.325Z,1.97
2019-05-03T05:46:11.565Z,1.77
2019-05-03T05:48:48.186Z,1.50
2019-05-03T05:51:21.511Z,1.73
2019-05-03T05:53:54.899Z,2.03
2019-05-03T05:56:44.641Z,1.70
2019-05-03T05:59:28.769Z,1.80
2019-05-03T06:02:04.965Z,1.40
2019-05-03T06:04:37.535Z,1.80
2019-05-03T06:07:31.080Z,1.70
2019-05-03T06:10:16.548Z,2.00
2019-05-03T06:13:06.296Z,1.70
2019-05-03T06:15:56.682Z,1.53
2019-05-03T06:18:47.087Z,2.20
2019-05-03T06:21:33.060Z,1.50
2019-05-03T06:24:14.749Z,1.73
2019-05-03T06:27:11.261Z,1.40
2019-05-03T06:29:45.423Z,1.50
2019-05-03T06:32:22.594Z,2.00
2019-05-03T06:34:54.606Z,1.73
2019-05-03T06:37:28.543Z,1.30
2019-05-03T06:40:00.155Z,1.57
2019-05-03T06:42:31.753Z,1.30
2019-05-03T06:45:09.613Z,1.50
2019-05-03T06:47:40.286Z,1.30
2019-05-03T06:50:11.007Z,1.57
2019-05-03T06:52:44.419Z,1.50
2019-05-03T06:55:17.590Z,1.50
2019-05-03T06:57:49.893Z,1.40
2019-05-03T07:00:35.165Z,1.70
2019-05-03T07:03:26.079Z,1.53
2019-05-03T07:06:40.397Z,1.47
2019-05-03T07:09:14.773Z,1.60
2019-05-03T07:11:46.388Z,1.67
2019-05-03T07:14:18.145Z,1.40
2019-05-03T07:16:49.725Z,1.60
2019-05-03T07:19:21.367Z,1.70
2019-05-03T07:21:54.608Z,1.30
2019-05-03T07:24:26.403Z,1.53
2019-05-03T07:26:59.167Z,1.40
2019-05-03T07:29:31.141Z,1.53
2019-05-03T07:32:05.055Z,2.90
2019-05-03T07:34:36.218Z,1.50
2019-05-03T07:37:07.911Z,1.33
2019-05-03T07:39:40.543Z,1.40
2019-05-03T07:42:12.201Z,1.43
2019-05-03T07:44:44.937Z,1.63
2019-05-03T07:47:16.854Z,1.47
2019-05-03T07:50:00.409Z,1.70
2019-05-03T07:52:31.996Z,1.60
2019-05-03T07:55:05.371Z,1.43
2019-05-03T07:57:48.791Z,1.70
2019-05-03T08:00:25.296Z,1.43
2019-05-03T08:02:56.831Z,1.37
2019-05-03T08:05:29.701Z,1.50
2019-05-03T08:08:01.302Z,1.50
2019-05-03T08:10:34.523Z,1.30
2019-05-03T08:13:06.243Z,1.60
2019-05-03T08:15:38.169Z,2.27
2019-05-03T08:18:10.485Z,1.60
2019-05-03T08:20:42.049Z,1.60
2019-05-03T08:23:26.330Z,1.70
2019-05-03T08:25:46.674Z,1.70
2019-05-03T08:28:19.433Z,1.80
2019-05-03T08:31:08.904Z,1.60
2019-05-03T08:34:04.683Z,1.53
2019-05-03T08:36:54.824Z,1.50
2019-05-03T08:39:26.530Z,1.57
2019-05-03T08:42:04.825Z,1.80
2019-05-03T08:44:37.850Z,1.60
2019-05-03T08:47:09.349Z,1.40
2019-05-03T08:49:40.800Z,1.67
2019-05-03T08:52:12.318Z,1.50
2019-05-03T08:54:44.910Z,1.13
2019-05-03T08:57:17.149Z,1.50
2019-05-03T08:59:48.626Z,1.00
2019-05-03T09:02:20.126Z,1.57
2019-05-03T09:04:51.594Z,1.63
2019-05-03T09:07:25.144Z,1.47
2019-05-03T09:10:05.547Z,1.47
2019-05-03T09:12:55.846Z,1.10
2019-05-03T09:15:27.358Z,1.40
2019-05-03T09:17:59.022Z,1.40
2019-05-03T09:20:32.374Z,1.53
2019-05-03T09:23:05.403Z,1.60
2019-05-03T09:25:37.294Z,1.73
2019-05-03T09:28:08.994Z,1.70
2019-05-03T09:30:40.534Z,1.60
2019-05-03T09:33:12.096Z,1.70
2019-05-03T09:35:45.597Z,1.40
2019-05-03T09:38:16.736Z,1.70
2019-05-03T09:40:48.238Z,1.20
2019-05-03T09:43:19.871Z,1.60
2019-05-03T09:45:51.408Z,1.07
2019-05-03T09:48:25.161Z,0.90
2019-05-03T09:50:56.130Z,1.10
2019-05-03T09:53:30.367Z,1.30
2019-05-03T09:56:01.899Z,1.30
2019-05-03T09:58:36.438Z,1.27
2019-05-03T10:01:08.532Z,1.30
2019-05-03T10:03:39.766Z,1.23
2019-05-03T10:06:14.197Z,1.40
2019-05-03T10:08:45.358Z,0.87
2019-05-03T10:11:17.190Z,1.40
2019-05-03T10:13:49.069Z,1.47
2019-05-03T10:16:24.789Z,1.60
2019-05-03T10:18:55.878Z,1.20
2019-05-03T10:21:29.043Z,1.60
2019-05-03T10:24:00.553Z,1.00
2019-05-03T10:26:32.035Z,1.23
2019-05-03T10:29:05.448Z,1.37
2019-05-03T10:31:56.728Z,1.20
2019-05-03T10:34:28.296Z,1.40
2019-05-03T10:36:59.774Z,1.40
2019-05-03T10:39:32.415Z,1.10
2019-05-03T10:42:04.823Z,1.57
2019-05-03T10:44:37.030Z,1.23
2019-05-03T10:47:08.626Z,1.40
2019-05-03T10:49:40.058Z,1.47
2019-05-03T10:52:12.491Z,1.37
2019-05-03T10:54:45.865Z,1.30
2019-05-03T10:57:18.854Z,1.50
2019-05-03T10:59:50.422Z,1.33
2019-05-03T11:02:39.972Z,1.20
2019-05-03T11:05:11.539Z,1.27
2019-05-03T11:07:45.152Z,1.33
2019-05-03T11:10:17.014Z,1.40
2019-05-03T11:12:48.534Z,1.40
2019-05-03T11:15:20.042Z,1.47
2019-05-03T11:17:51.562Z,1.63
2019-05-03T11:20:35.031Z,1.43
2019-05-03T11:23:07.955Z,1.40
2019-05-03T11:25:39.450Z,1.50
2019-05-03T11:28:16.981Z,1.50
2019-05-03T11:30:56.429Z,1.30
2019-05-03T11:33:35.899Z,1.20
2019-05-03T11:36:15.112Z,1.27
2019-05-03T11:38:48.666Z,1.53
2019-05-03T11:41:30.315Z,1.63
2019-05-03T11:43:53.427Z,1.67
2019-05-03T11:46:24.894Z,1.40
2019-05-03T11:48:56.430Z,1.23
2019-05-03T11:51:27.887Z,1.20
2019-05-03T11:53:59.397Z,1.23
2019-05-03T11:56:30.926Z,1.60
2019-05-03T11:59:02.488Z,1.60
2019-05-03T12:01:52.858Z,1.33
2019-05-03T12:04:24.948Z,1.63
2019-05-03T12:06:56.534Z,1.30
2019-05-03T12:09:28.105Z,1.40
2019-05-03T12:11:59.579Z,1.47
2019-05-03T12:14:31.104Z,2.10
2019-05-03T12:17:18.228Z,1.40
2019-05-03T12:19:41.795Z,1.20
2019-05-03T12:22:16.249Z,1.37
2019-05-03T12:24:47.407Z,1.10
2019-05-03T12:27:19.434Z,1.10
2019-05-03T12:29:52.407Z,1.13
2019-05-03T12:32:25.094Z,1.47
2019-05-03T12:34:57.053Z,1.10
2019-05-03T12:37:28.834Z,1.33
2019-05-03T12:40:00.370Z,0.87
2019-05-03T12:42:31.823Z,1.80
2019-05-03T12:45:04.560Z,1.27
2019-05-03T12:47:37.737Z,1.57
2019-05-03T12:50:09.502Z,1.57
2019-05-03T12:52:49.835Z,1.80
2019-05-03T12:55:15.681Z,1.57
2019-05-03T12:57:47.148Z,1.30
2019-05-03T13:00:36.318Z,1.50
2019-05-03T13:03:11.281Z,1.10
2019-05-03T13:05:44.790Z,1.13
2019-05-03T13:08:35.567Z,1.40
2019-05-03T13:11:07.636Z,1.30
2019-05-03T13:13:39.264Z,1.30
2019-05-03T13:16:15.174Z,0.90
2019-05-03T13:18:46.135Z,1.10
2019-05-03T13:21:17.607Z,1.33
2019-05-03T13:23:49.103Z,1.10
2019-05-03T13:26:20.972Z,1.13
2019-05-03T13:28:52.574Z,1.37
2019-05-03T13:31:25.123Z,1.23
2019-05-03T13:33:57.523Z,1.00
2019-05-03T13:36:30.257Z,1.00
2019-05-03T13:39:13.095Z,1.40
2019-05-03T13:41:36.463Z,1.10
2019-05-03T13:44:07.956Z,1.20
2019-05-03T13:46:39.616Z,1.40
2019-05-03T13:49:11.117Z,1.50
2019-05-03T13:51:42.761Z,1.10
2019-05-03T13:54:14.987Z,1.20
2019-05-03T13:56:46.575Z,1.40
2019-05-03T13:59:19.851Z,1.20
2019-05-03T14:01:51.210Z,1.10
2019-05-03T14:04:22.747Z,1.20
2019-05-03T14:06:55.209Z,1.03
2019-05-03T14:09:27.103Z,1.53
2019-05-03T14:11:58.574Z,1.07
2019-05-03T14:14:34.823Z,1.20
2019-05-03T14:17:05.774Z,1.27
2019-05-03T14:19:38.806Z,1.40
2019-05-03T14:22:11.902Z,1.63
2019-05-03T14:24:44.570Z,1.10
2019-05-03T14:27:17.745Z,1.17
2019-05-03T14:29:49.205Z,1.17
2019-05-03T14:32:26.803Z,1.43
2019-05-03T14:34:54.739Z,1.20
2019-05-03T14:37:26.327Z,1.27
2019-05-03T14:39:57.895Z,1.20
2019-05-03T14:42:29.493Z,1.27
2019-05-03T14:45:01.098Z,1.30
2019-05-03T14:47:32.686Z,1.13
2019-05-03T14:50:05.578Z,1.10
2019-05-03T14:52:37.466Z,0.90
2019-05-03T14:55:15.400Z,1.30
2019-05-03T14:57:55.843Z,1.40
2019-05-03T15:00:34.546Z,1.53
2019-05-03T15:03:11.922Z,1.30
2019-05-03T15:05:43.886Z,1.60
2019-05-03T15:08:15.418Z,1.80
2019-05-03T15:10:46.991Z,1.47
2019-05-03T15:13:18.443Z,1.30
2019-05-03T15:15:51.308Z,1.20
2019-05-03T15:18:22.778Z,1.17
2019-05-03T15:20:55.063Z,1.03
2019-05-03T15:23:28.099Z,1.00
2019-05-03T15:25:59.541Z,1.10
2019-05-03T15:28:31.035Z,1.17
2019-05-03T15:31:04.443Z,1.40
2019-05-03T15:33:35.714Z,1.40
2019-05-03T15:36:07.247Z,1.27
2019-05-03T15:38:38.733Z,1.30
2019-05-03T15:41:10.517Z,1.70
2019-05-03T15:43:49.114Z,1.13
2019-05-03T15:46:54.444Z,1.40
2019-05-03T15:49:27.687Z,1.70
2019-05-03T15:51:59.119Z,1.30
2019-05-03T15:54:30.567Z,1.40
2019-05-03T15:57:02.170Z,1.37
2019-05-03T15:59:33.727Z,1.40
2019-05-03T16:02:05.210Z,1.20
2019-05-03T16:04:36.943Z,1.40
2019-05-03T16:07:08.433Z,1.33
2019-05-03T16:09:40.006Z,1.60
2019-05-03T16:12:11.573Z,1.47
2019-05-03T16:14:44.544Z,1.40
2019-05-03T16:17:17.793Z,1.50
2019-05-03T16:19:49.287Z,1.30
2019-05-03T16:22:20.778Z,1.57
2019-05-03T16:24:52.598Z,1.80
2019-05-03T16:27:43.041Z,1.70
2019-05-03T16:30:47.115Z,1.90
2019-05-03T16:33:26.941Z,1.40
2019-05-03T16:35:51.716Z,1.90
2019-05-03T16:38:24.838Z,1.50
2019-05-03T16:40:56.618Z,1.60
2019-05-03T16:43:28.186Z,1.00
2019-05-03T16:45:59.715Z,1.73
2019-05-03T16:48:31.219Z,1.57
2019-05-03T16:51:02.766Z,1.50
2019-05-03T16:53:35.034Z,1.40
2019-05-03T16:56:06.884Z,2.10
2019-05-03T16:58:38.350Z,1.33
2019-05-03T17:01:09.895Z,1.27
2019-05-03T17:03:49.662Z,1.10
2019-05-03T17:06:39.343Z,1.73
2019-05-03T17:09:30.082Z,1.40
2019-05-03T17:12:11.335Z,1.80
2019-05-03T17:14:42.862Z,1.33
2019-05-03T17:17:15.714Z,2.13
2019-05-03T17:19:47.327Z,2.40
2019-05-03T17:22:18.850Z,1.60
2019-05-03T17:24:51.710Z,78.00
2019-05-03T17:27:25.000Z,62.73
2019-05-03T17:29:56.862Z,30.57
2019-05-03T17:32:28.487Z,21.13
2019-05-03T17:35:00.014Z,29.33
2019-05-03T17:37:31.526Z,12.40
2019-05-03T17:40:20.660Z,6.97
2019-05-03T17:43:08.626Z,3.27
2019-05-03T17:45:45.437Z,2.47
2019-05-03T17:48:17.246Z,2.07
2019-05-03T17:50:48.971Z,2.33
2019-05-03T17:53:45.334Z,1.97
2019-05-03T17:56:21.238Z,2.07
2019-05-03T17:59:01.946Z,2.70
2019-05-03T18:01:58.446Z,1.93
2019-05-03T18:04:55.168Z,1.77
2019-05-03T18:07:54.591Z,2.00
2019-05-03T18:10:27.933Z,1.80
2019-05-03T18:12:59.490Z,1.70
2019-05-03T18:15:31.037Z,2.40
2019-05-03T18:18:02.504Z,1.80
2019-05-03T18:20:34.562Z,1.83
2019-05-03T18:23:06.537Z,2.37
2019-05-03T18:25:38.562Z,2.30
2019-05-03T18:28:11.060Z,2.40
2019-05-03T18:30:42.598Z,2.60
2019-05-03T18:33:15.476Z,2.80
2019-05-03T18:35:46.957Z,2.10
2019-05-03T18:38:18.460Z,2.57
2019-05-03T18:40:49.958Z,2.17
2019-05-03T18:43:32.200Z,2.37
2019-05-03T18:46:11.570Z,2.67
2019-05-03T18:48:44.537Z,1.87
2019-05-03T18:51:16.627Z,2.07
2019-05-03T18:53:49.274Z,2.40
2019-05-03T18:56:20.857Z,2.20
2019-05-03T18:58:54.037Z,2.00
2019-05-03T19:01:25.678Z,1.80
2019-05-03T19:04:04.814Z,2.17
2019-05-03T19:06:38.726Z,2.50
2019-05-03T19:09:29.295Z,2.10
2019-05-03T19:12:22.787Z,1.90
2019-05-03T19:14:54.775Z,2.10
2019-05-03T19:17:50.328Z,2.40
2019-05-03T19:20:21.905Z,2.73
2019-05-03T19:22:54.434Z,2.70
2019-05-03T19:25:26.182Z,4.40
2019-05-03T19:27:57.779Z,2.30
2019-05-03T19:30:31.639Z,2.93
2019-05-03T19:33:04.363Z,3.40
2019-05-03T19:35:36.569Z,4.00
2019-05-03T19:38:08.376Z,3.80
2019-05-03T19:40:39.994Z,4.17
2019-05-03T19:43:11.460Z,4.67
2019-05-03T19:45:44.776Z,4.40
2019-05-03T19:48:16.955Z,5.73
2019-05-03T19:50:49.082Z,6.10
2019-05-03T19:53:49.256Z,6.47
2019-05-03T19:56:21.921Z,5.23
2019-05-03T19:58:57.526Z,5.17
2019-05-03T20:01:55.187Z,5.70
2019-05-03T20:04:35.645Z,5.73
2019-05-03T20:07:35.156Z,5.20
2019-05-03T20:10:07.760Z,5.70
2019-05-03T20:12:39.368Z,6.43
2019-05-03T20:15:11.482Z,6.90
2019-05-03T20:17:54.675Z,9.67
2019-05-03T20:20:16.364Z,8.87
2019-05-03T20:22:47.978Z,8.93
2019-05-03T20:25:19.620Z,10.10
2019-05-03T20:27:51.227Z,10.93
2019-05-03T20:30:22.902Z,10.23
2019-05-03T20:32:55.525Z,10.80
2019-05-03T20:35:27.432Z,10.43
2019-05-03T20:37:58.942Z,8.97
2019-05-03T20:40:30.534Z,8.63
2019-05-03T20:43:19.772Z,9.83
2019-05-03T20:46:10.677Z,9.10
2019-05-03T20:48:44.779Z,8.73
2019-05-03T20:51:16.770Z,8.20
2019-05-03T20:53:48.243Z,7.40
2019-05-03T20:56:20.152Z,6.70
2019-05-03T20:58:51.658Z,6.40
2019-05-03T21:01:23.194Z,6.57
2019-05-03T21:03:54.943Z,5.97
2019-05-03T21:06:34.832Z,5.77
2019-05-03T21:08:59.556Z,5.20
2019-05-03T21:11:31.094Z,5.70
2019-05-03T21:14:04.673Z,4.87
2019-05-03T21:16:48.404Z,5.03
2019-05-03T21:19:44.770Z,5.43
2019-05-03T21:22:19.658Z,4.87
2019-05-03T21:25:12.892Z,4.37
2019-05-03T21:27:44.913Z,3.80
2019-05-03T21:30:16.802Z,3.30
2019-05-03T21:32:48.358Z,3.23
2019-05-03T21:35:20.639Z,3.57
2019-05-03T21:37:54.321Z,3.47
2019-05-03T21:40:25.932Z,2.87
2019-05-03T21:42:57.454Z,2.80
2019-05-03T21:45:36.619Z,2.97
2019-05-03T21:48:18.497Z,2.80
2019-05-03T21:50:49.962Z,3.30
2019-05-03T21:53:21.519Z,2.90
2019-05-03T21:55:52.974Z,3.47
2019-05-03T21:58:25.049Z,3.47
2019-05-03T22:01:05.105Z,2.93
2019-05-03T22:03:37.861Z,2.90
2019-05-03T22:06:09.368Z,2.57
2019-05-03T22:08:40.867Z,2.90
2019-05-03T22:11:12.349Z,2.60
2019-05-03T22:13:46.254Z,2.97
2019-05-03T22:16:26.368Z,2.97
2019-05-03T22:18:57.939Z,2.80
2019-05-03T22:21:48.078Z,2.93
2019-05-03T22:24:38.421Z,3.47
2019-05-03T22:27:15.374Z,3.23
2019-05-03T22:29:46.963Z,3.17
2019-05-03T22:32:18.421Z,3.40
2019-05-03T22:34:51.704Z,3.00
2019-05-03T22:37:25.224Z,3.90
2019-05-03T22:39:56.358Z,2.80
2019-05-03T22:42:27.893Z,2.83
2019-05-03T22:44:59.421Z,3.27
2019-05-03T22:47:30.889Z,3.00
2019-05-03T22:50:02.680Z,2.53
2019-05-03T22:52:35.050Z,2.87
2019-05-03T22:55:07.505Z,3.23
2019-05-03T22:57:39.070Z,3.13
2019-05-03T23:00:10.763Z,3.03
2019-05-03T23:02:45.508Z,2.60
2019-05-03T23:05:17.325Z,3.33
2019-05-03T23:07:48.812Z,2.70
2019-05-03T23:10:20.257Z,2.33
2019-05-03T23:12:51.742Z,2.73
2019-05-03T23:15:24.498Z,2.80
2019-05-03T23:17:56.768Z,2.23
2019-05-03T23:20:36.373Z,3.00
2019-05-03T23:23:09.840Z,2.80
2019-05-03T23:25:41.605Z,2.93
2019-05-03T23:28:14.474Z,3.73
2019-05-03T23:30:46.393Z,2.80
2019-05-03T23:33:17.998Z,2.90
2019-05-03T23:35:49.443Z,3.37
2019-05-03T23:38:21.210Z,2.83
2019-05-03T23:40:52.673Z,2.90
2019-05-03T23:43:25.120Z,3.27
2019-05-03T23:45:56.997Z,3.30
2019-05-03T23:48:28.438Z,3.43
2019-05-03T23:50:59.889Z,3.07
2019-05-03T23:53:31.411Z,3.00
2019-05-03T23:56:16.633Z,2.63
2019-05-03T23:58:48.139Z,3.13
